Flight Track Log - Related Links

Times and Time Zones

All times are in EDT time to prevent confusion due to time zone crossing. See the TMC855 flight status page for this flight to view local times or setup timezone preferences in your user account.

Time Position Orientation Groundspeed Altitude Reporting Facility
EDT Latitude Longitude Course Direction KTS MPH feet Rate Location/Type
Fri 04:11:08 PM 40.8167 -74.1500 218° Southwest 228 262 1,600  Level New York TRACON
Fri 04:12:08 PM 40.8167 -74.2333 270° West 246 283 4,900 2,095 Climbing New York TRACON
Fri 04:13:14 PM 40.7500 -74.3167 223° Southwest 284 327 6,000 1,429 Climbing New York TRACON
Fri 04:14:14 PM 40.6667 -74.3000 171° South 261 300 7,900 2,950 Climbing New York TRACON
Fri 04:15:14 PM 40.6000 -74.2833 169° South 274 315 11,900 3,650 Climbing New York TRACON
Fri 04:16:00 PM 40.4374 -74.4866 218° Southwest  Level Estimated
Fri 04:16:14 PM 40.5333 -74.3333 210° Southwest 287 330 15,200  Level New York TRACON
Fri 04:17:14 PM 40.4667 -74.2667 143° Southeast 343 395 17,000 900 Climbing New York TRACON
Fri 04:18:14 PM 40.4167 -74.1667 123° Southeast 349 402 17,000  Level New York TRACON
Fri 04:19:06 PM 40.3433 -74.1178 153° Southeast 351 404 17,000  Level New York Center
Fri 04:20:04 PM 40.2739 -74.0653 150° Southeast 342 394 17,000  Level New York Center
Fri 04:21:05 PM 40.1858 -74.0828 189° South 296 341 17,000 446 Level New York Center
Fri 04:22:05 PM 40.1153 -74.1528 217° Southwest 319 367 17,900 1,047 Climbing New York Center
Fri 04:22:31 PM 40.0803 -74.1842 214° Southwest 334 384 18,500 2,071 Climbing Washington Center
Fri 04:23:29 PM 39.9875 -74.2675 215° Southwest 353 406 20,800 2,471 Climbing Washington Center
Fri 04:24:30 PM 39.9028 -74.3500 217° Southwest 372 428 23,400 1,785 Climbing Washington Center
Fri 04:25:30 PM 39.8161 -74.4300 215° Southwest 384 442 24,400 1,190 Climbing Washington Center
Fri 04:26:31 PM 39.7381 -74.5364 226° Southwest 396 456 25,800 793 Climbing Washington Center
Fri 04:27:31 PM 39.6556 -74.6456 226° Southwest 412 474 26,000 101 Climbing Washington Center
Fri 04:28:30 PM 39.5792 -74.7489 226° Southwest 412 474 26,000  Level Washington Center
Fri 04:29:30 PM 39.5008 -74.8467 224° Southwest 402 463 26,000  Level Washington Center
Fri 04:30:31 PM 39.4242 -74.9494 226° Southwest 402 463 26,000  Level Washington Center
Fri 04:31:29 PM 39.3497 -75.0494 226° Southwest 397 457 26,000  Level Washington Center
Fri 04:32:29 PM 39.2708 -75.1467 224° Southwest 397 457 26,000  Level Washington Center
Fri 04:33:31 PM 39.1961 -75.2514 227° Southwest 397 457 26,000  Level Washington Center
Fri 04:34:31 PM 39.1172 -75.3508 224° Southwest 397 457 26,000  Level Washington Center
Fri 04:35:29 PM 39.0425 -75.4500 226° Southwest 397 457 26,000  Level Washington Center
Fri 04:36:30 PM 38.9653 -75.5436 223° Southwest 392 451 26,000  Level Washington Center
Fri 04:37:30 PM 38.8967 -75.6422 228° Southwest 379 436 26,000  Level Washington Center
Fri 04:38:30 PM 38.8547 -75.7597 245° Southwest 359 413 26,000  Level Washington Center
Fri 04:39:31 PM 38.8172 -75.8714 247° West 359 413 26,000  Level Washington Center
Fri 04:40:31 PM 38.7542 -75.9669 230° Southwest 354 407 26,000  Level Washington Center
Fri 04:41:29 PM 38.6706 -76.0436 216° Southwest 354 407 26,000  Level Washington Center
Fri 04:42:30 PM 38.5911 -76.1228 218° Southwest 366 421 26,000  Level Washington Center
Fri 04:43:30 PM 38.5011 -76.2044 215° Southwest 379 436 26,000  Level Washington Center
Fri 04:44:31 PM 38.4194 -76.2808 216° Southwest 385 443 26,000  Level Washington Center
Fri 04:45:29 PM 38.3356 -76.3567 215° Southwest 385 443 26,000  Level Washington Center
Fri 04:46:29 PM 38.2600 -76.4353 219° Southwest 378 435 26,000  Level Washington Center
Fri 04:47:29 PM 38.1944 -76.5297 229° Southwest 363 418 26,000  Level Washington Center
Fri 04:48:30 PM 38.1250 -76.6264 228° Southwest 363 418 26,000  Level Washington Center
Fri 04:49:30 PM 38.0575 -76.7206 228° Southwest 369 425 26,000 -298 Level Washington Center
Fri 04:50:31 PM 37.9628 -76.7900 210° Southwest 369 425 25,400 -645 Descending Washington Center
Fri 04:51:31 PM 37.8581 -76.8436 202° Southwest 391 450 24,700 -700 Descending Washington Center
Fri 04:52:31 PM 37.7572 -76.8972 203° Southwest 397 457 24,000 -763 Descending Washington Center
Fri 04:53:29 PM 37.6503 -76.9506 202° Southwest 407 468 23,200 -915 Descending Washington Center
Fri 04:54:29 PM 37.5517 -77.0036 203° Southwest 401 461 22,200 -595 Descending Washington Center
Fri 04:55:30 PM 37.4594 -77.0492 201° Southwest 393 452 22,000 -99 Descending Washington Center
Fri 04:56:30 PM 37.3567 -77.1019 202° Southwest 376 433 22,000  Level Washington Center
Fri 04:57:30 PM 37.2850 -77.1503 208° Southwest 368 423 22,000  Level Washington Center
Fri 04:58:31 PM 37.1903 -77.2136 208° Southwest 358 412 22,000  Level Washington Center
Fri 04:59:30 PM 37.1061 -77.2717 209° Southwest 353 406 22,000 -202 Level Washington Center
Fri 05:00:30 PM 37.0239 -77.3297 209° Southwest 353 406 21,600 -750 Descending Washington Center
Fri 05:01:30 PM 36.9375 -77.3900 209° Southwest 353 406 20,500 -1,160 Descending Washington Center
Fri 05:02:29 PM 36.8425 -77.4553 209° Southwest 359 413 19,300 -1,150 Descending Washington Center
Fri 05:03:30 PM 36.7583 -77.5103 208° Southwest 353 406 18,200 -836 Descending Washington Center
Fri 05:04:31 PM 36.6803 -77.5681 211° Southwest 348 400 17,600 -793 Descending Washington Center
Fri 05:05:31 PM 36.5978 -77.6256 209° Southwest 348 400 16,600 -1,050 Descending Washington Center
Fri 05:06:31 PM 36.5178 -77.6775 208° Southwest 338 389 15,500 -1,068 Descending Washington Center
Fri 05:07:29 PM 36.4394 -77.7297 208° Southwest 332 382 14,500 -1,068 Descending Washington Center
Fri 05:08:29 PM 36.3656 -77.7869 212° Southwest 327 376 13,400 -1,033 Descending Washington Center
Fri 05:09:31 PM 36.3139 -77.8733 233° Southwest 305 351 12,400 -785 Descending Washington Center
Fri 05:10:16 PM 36.2792 -77.9367 236° Southwest 298 343 12,000 -226 Descending Washington Center
Fri 05:11:17 PM 36.2378 -78.0281 241° Southwest 282 325 12,000  Level Washington Center
Fri 05:12:24 PM 36.1897 -78.1269 239° Southwest 301 346 12,000  Level Washington Center
Fri 05:13:24 PM 36.1461 -78.2156 239° Southwest 313 360 12,000 -198 Level Washington Center
Fri 05:14:25 PM 36.1022 -78.3067 239° Southwest 310 357 11,600 -1,134 Descending Washington Center
Fri 05:15:31 PM 36.0606 -78.3978 241° Southwest 292 336 9,600 -1,694 Descending Washington Center
Fri 05:16:29 PM 36.0233 -78.4683 237° Southwest 244 281 8,100 -814 Descending Washington Center
Fri 05:17:29 PM 35.9947 -78.5392 243° Southwest 251 289 8,000 -47 Descending Washington Center
Fri 05:18:36 PM 35.9472 -78.5992 226° Southwest 228 262 8,000  Level Washington Center
Fri 05:19:31 PM 35.9022 -78.6461 220° Southwest 233 268 8,000 -105 Level Washington Center
Fri 05:20:30 PM 35.8508 -78.6953 218° Southwest 235 270 7,800 -1,000 Descending Washington Center
Fri 05:21:31 PM 35.8014 -78.7497 222° Southwest 236 272 6,000 -1,835 Descending Washington Center
Fri 05:22:31 PM 35.7539 -78.8067 224° Southwest 228 262 4,100 -1,148 Descending Washington Center
Fri 05:23:26 PM 35.7567 -78.8606 274° West 194 223 3,800 -1,119 Descending Washington Center
Fri 05:24:29 PM 35.8131 -78.8603 360° North 198 228 1,900 -1,388 Descending Washington Center
Fri 05:25:27 PM 35.8453 -78.8233 43° Northeast 143 165 1,000 -931 Descending Washington Center
Fri 05:27:00 PM 35.8667 -78.7833 North  Level FlightAware Approximate
Fri 05:34:00 PM 35.8776 -78.7875 North  Level Estimated

Login

Don't have an account? Register now (free) for customized features, flight alerts, and more!